createdAt,value
2022-12-01T00:02:45.224Z,58.13
2022-12-01T00:06:46.997Z,51.60
2022-12-01T00:10:49.288Z,43.60
2022-12-01T00:14:55.136Z,58.17
2022-12-01T00:18:58.903Z,47.67
2022-12-01T00:23:01.718Z,43.15
2022-12-01T00:27:03.579Z,42.10
2022-12-01T00:31:12.348Z,46.42
2022-12-01T00:35:15.029Z,48.42
2022-12-01T00:39:16.873Z,43.85
2022-12-01T00:43:18.546Z,42.65
2022-12-01T00:47:20.387Z,42.92
2022-12-01T00:51:22.033Z,43.00
2022-12-01T00:55:23.666Z,49.25
2022-12-01T00:59:25.435Z,51.50
2022-12-01T01:03:28.116Z,47.08
2022-12-01T01:07:30.195Z,47.00
2022-12-01T01:11:31.923Z,51.25
2022-12-01T01:15:33.856Z,52.55
2022-12-01T01:19:35.600Z,57.70
2022-12-01T01:23:37.643Z,54.90
2022-12-01T01:27:39.335Z,60.65
2022-12-01T01:31:41.147Z,57.80
2022-12-01T01:35:42.806Z,62.05
2022-12-01T01:39:44.500Z,57.80
2022-12-01T01:43:55.966Z,56.90
2022-12-01T01:48:00.528Z,50.05
2022-12-01T01:52:04.676Z,51.85
2022-12-01T01:56:08.899Z,59.30
2022-12-01T02:00:16.067Z,61.45
2022-12-01T02:04:20.492Z,63.42
2022-12-01T02:08:22.356Z,57.88
2022-12-01T02:13:01.157Z,62.45
2022-12-01T02:17:44.113Z,51.72
2022-12-01T02:22:18.460Z,58.58
2022-12-01T02:26:48.040Z,53.75
2022-12-01T02:31:04.590Z,58.30
2022-12-01T02:35:15.528Z,63.95
2022-12-01T02:39:32.283Z,52.75
2022-12-01T02:44:02.039Z,57.00
2022-12-01T02:48:09.209Z,60.78
2022-12-01T02:52:11.619Z,60.38
2022-12-01T02:56:16.174Z,64.82
2022-12-01T03:00:18.500Z,56.65
2022-12-01T03:04:49.352Z,65.88
2022-12-01T03:09:06.486Z,58.00
2022-12-01T03:13:14.248Z,61.22
2022-12-01T03:17:20.785Z,57.70
2022-12-01T03:21:31.305Z,57.63
2022-12-01T03:25:33.056Z,48.80
2022-12-01T03:29:41.364Z,53.92
2022-12-01T03:33:48.801Z,61.38
2022-12-01T03:37:59.297Z,60.20
2022-12-01T03:42:08.952Z,52.42
2022-12-01T03:46:33.186Z,49.42
2022-12-01T03:50:59.740Z,59.80
2022-12-01T03:55:21.028Z,51.13
2022-12-01T03:59:24.926Z,52.88
2022-12-01T04:03:26.894Z,58.67
2022-12-01T04:07:28.601Z,58.58
2022-12-01T04:11:48.938Z,55.40
2022-12-01T04:15:52.074Z,56.00
2022-12-01T04:19:53.823Z,58.72
2022-12-01T04:24:01.682Z,58.63
2022-12-01T04:28:03.433Z,52.03
2022-12-01T04:32:05.331Z,55.38
2022-12-01T04:36:07.401Z,46.05
2022-12-01T04:40:09.963Z,46.90
2022-12-01T04:44:11.860Z,47.33
2022-12-01T04:48:13.593Z,51.78
2022-12-01T04:52:15.472Z,48.10
2022-12-01T04:56:17.509Z,44.97
2022-12-01T05:00:19.341Z,53.67
2022-12-01T05:04:21.207Z,56.60
2022-12-01T05:08:22.885Z,49.58
2022-12-01T05:12:24.857Z,47.80
2022-12-01T05:16:29.239Z,55.35
2022-12-01T05:20:49.758Z,62.40
2022-12-01T05:24:51.536Z,56.22
2022-12-01T05:28:53.213Z,66.47
2022-12-01T05:32:55.101Z,62.92
2022-12-01T05:36:56.849Z,58.47
2022-12-01T05:40:58.575Z,60.70
2022-12-01T05:45:00.257Z,54.00
2022-12-01T05:49:01.959Z,66.32
2022-12-01T05:53:03.613Z,68.32
2022-12-01T05:57:05.307Z,60.80
2022-12-01T06:01:07.387Z,58.53
2022-12-01T06:05:09.937Z,61.25
2022-12-01T06:09:11.645Z,60.35
2022-12-01T06:13:13.674Z,77.88
2022-12-01T06:17:15.396Z,76.95
2022-12-01T06:21:17.090Z,64.15
2022-12-01T06:25:18.898Z,66.00
2022-12-01T06:29:20.643Z,61.95
2022-12-01T06:33:22.507Z,63.97
2022-12-01T06:37:24.260Z,59.88
2022-12-01T06:41:25.961Z,61.80
2022-12-01T06:45:27.785Z,68.32
2022-12-01T06:49:29.567Z,63.65
2022-12-01T06:53:31.372Z,76.32
2022-12-01T06:57:33.106Z,67.55
2022-12-01T07:01:34.899Z,57.83
2022-12-01T07:05:37.059Z,64.50
2022-12-01T07:09:39.468Z,60.97
2022-12-01T07:13:42.631Z,64.85
2022-12-01T07:17:44.298Z,66.85
2022-12-01T07:21:46.052Z,61.83
2022-12-01T07:25:47.741Z,67.03
2022-12-01T07:29:49.718Z,65.47
2022-12-01T07:33:52.497Z,62.75
2022-12-01T07:37:56.022Z,73.35
2022-12-01T07:41:57.701Z,64.32
2022-12-01T07:46:22.230Z,67.53
2022-12-01T07:50:25.131Z,65.63
2022-12-01T07:54:26.985Z,69.53
2022-12-01T07:58:30.064Z,65.82
2022-12-01T08:02:31.830Z,58.13
2022-12-01T08:06:33.707Z,75.50
2022-12-01T08:10:36.240Z,75.57
2022-12-01T08:14:37.997Z,70.13
2022-12-01T08:18:41.214Z,66.15
2022-12-01T08:22:42.969Z,76.15
2022-12-01T08:26:44.676Z,76.85
2022-12-01T08:30:47.341Z,68.97
2022-12-01T08:34:53.378Z,65.18
2022-12-01T08:38:56.063Z,75.65
2022-12-01T08:42:57.900Z,65.95
2022-12-01T08:46:59.682Z,66.07
2022-12-01T08:51:03.776Z,72.95
2022-12-01T08:55:06.648Z,67.65
2022-12-01T08:59:09.035Z,59.40
2022-12-01T09:03:10.748Z,63.38
2022-12-01T09:07:15.127Z,71.10
2022-12-01T09:11:18.669Z,60.65
2022-12-01T09:15:20.332Z,61.60
2022-12-01T09:19:25.070Z,72.57
2022-12-01T09:23:27.130Z,68.53
2022-12-01T09:27:28.789Z,64.20
2022-12-01T09:31:30.852Z,65.10
2022-12-01T09:35:34.134Z,76.45
2022-12-01T09:39:35.831Z,73.05
2022-12-01T09:43:45.813Z,58.80
2022-12-01T09:47:47.847Z,73.03
2022-12-01T09:51:52.443Z,69.43
2022-12-01T09:55:59.270Z,70.40
2022-12-01T10:00:16.516Z,75.80
2022-12-01T10:04:29.602Z,67.20
2022-12-01T10:08:36.625Z,71.00
2022-12-01T10:12:38.452Z,65.25
2022-12-01T10:16:51.400Z,62.88
2022-12-01T10:21:23.431Z,65.63
2022-12-01T10:25:38.670Z,69.00
2022-12-01T10:30:00.671Z,69.80
2022-12-01T10:34:08.104Z,73.95
2022-12-01T10:38:22.005Z,70.73
2022-12-01T10:42:37.848Z,76.20
2022-12-01T10:46:55.736Z,68.32
2022-12-01T10:51:15.609Z,65.17
2022-12-01T10:55:23.420Z,64.68
2022-12-01T10:59:48.628Z,71.78
2022-12-01T11:04:27.291Z,61.47
2022-12-01T11:08:39.368Z,52.20
2022-12-01T11:12:43.346Z,50.75
2022-12-01T11:16:47.452Z,58.60
2022-12-01T11:21:14.198Z,61.97
2022-12-01T11:25:21.796Z,51.22
2022-12-01T11:29:31.991Z,53.20
2022-12-01T11:33:44.823Z,47.22
2022-12-01T11:38:27.717Z,52.88
2022-12-01T11:42:25.752Z,44.38
2022-12-01T11:46:50.154Z,50.50
2022-12-01T11:51:08.157Z,44.90
2022-12-01T11:55:12.686Z,45.22
2022-12-01T11:59:25.937Z,49.13
2022-12-01T12:03:44.808Z,44.45
2022-12-01T12:08:10.666Z,38.88
2022-12-01T12:12:29.359Z,43.95
2022-12-01T12:17:08.844Z,37.25
2022-12-01T12:25:47.986Z,48.42
2022-12-01T12:30:00.883Z,51.38
2022-12-01T12:34:13.837Z,57.17
2022-12-01T12:38:24.717Z,45.90
2022-12-01T12:42:43.642Z,52.38
2022-12-01T12:46:52.966Z,49.30
2022-12-01T12:51:09.586Z,52.08
2022-12-01T12:55:18.886Z,42.33
2022-12-01T12:59:26.387Z,47.63
2022-12-01T13:03:59.765Z,46.35
2022-12-01T13:08:06.948Z,38.78
2022-12-01T13:12:15.888Z,43.45
2022-12-01T13:16:22.593Z,37.58
2022-12-01T13:20:29.943Z,38.70
2022-12-01T13:24:31.687Z,34.10
2022-12-01T13:28:55.295Z,30.77
2022-12-01T13:33:03.984Z,29.70
2022-12-01T13:37:06.216Z,27.42
2022-12-01T13:41:13.809Z,30.25
2022-12-01T13:45:19.253Z,25.40
2022-12-01T13:49:51.624Z,33.45
2022-12-01T13:53:53.529Z,27.90
2022-12-01T13:57:58.350Z,31.52
2022-12-01T14:02:20.129Z,29.90
2022-12-01T14:06:24.700Z,30.58
2022-12-01T14:10:30.600Z,32.28
2022-12-01T14:14:39.070Z,30.20
2022-12-01T14:18:44.388Z,31.55
2022-12-01T14:22:50.440Z,26.30
2022-12-01T14:26:52.832Z,28.63
2022-12-01T14:30:54.557Z,28.27
2022-12-01T14:35:01.497Z,25.90
2022-12-01T14:39:19.944Z,24.30
2022-12-01T14:43:40.847Z,25.23
2022-12-01T14:47:49.494Z,24.75
2022-12-01T14:51:59.113Z,22.35
2022-12-01T14:56:18.132Z,27.67
2022-12-01T15:00:25.125Z,23.45
2022-12-01T15:04:27.032Z,30.27
2022-12-01T15:12:54.100Z,23.75
2022-12-01T15:16:56.381Z,25.00
2022-12-01T15:21:10.229Z,21.40
2022-12-01T15:25:15.304Z,27.05
2022-12-01T15:29:23.825Z,24.55
2022-12-01T15:33:36.599Z,27.02
2022-12-01T15:37:44.039Z,23.80
2022-12-01T15:41:48.367Z,18.08
2022-12-01T15:45:59.318Z,21.95
2022-12-01T15:50:01.055Z,30.55
2022-12-01T15:54:03.733Z,19.25
2022-12-01T15:58:09.989Z,21.38
2022-12-01T16:02:20.571Z,24.48
2022-12-01T16:06:30.019Z,22.15
2022-12-01T16:10:35.986Z,24.38
2022-12-01T16:14:50.314Z,21.83
2022-12-01T16:18:55.696Z,21.52
2022-12-01T16:23:03.272Z,19.40
2022-12-01T16:27:16.882Z,24.63
2022-12-01T16:31:20.057Z,23.10
2022-12-01T16:35:21.748Z,25.40
2022-12-01T16:39:23.474Z,21.77
2022-12-01T16:43:27.717Z,24.70
2022-12-01T16:47:32.278Z,28.98
2022-12-01T16:51:54.856Z,33.38
2022-12-01T16:56:00.487Z,21.25
2022-12-01T17:00:02.440Z,25.30
2022-12-01T17:04:07.569Z,35.63
2022-12-01T17:08:09.721Z,26.20
2022-12-01T17:12:11.551Z,25.33
2022-12-01T17:16:18.132Z,24.33
2022-12-01T17:20:20.386Z,25.42
2022-12-01T17:24:22.101Z,27.00
2022-12-01T17:28:23.819Z,24.17
2022-12-01T17:32:26.432Z,27.60
2022-12-01T17:36:28.093Z,23.23
2022-12-01T17:40:29.965Z,26.05
2022-12-01T17:44:31.688Z,23.65
2022-12-01T17:48:42.006Z,26.42
2022-12-01T17:52:43.721Z,28.52
2022-12-01T17:56:45.598Z,21.13
2022-12-01T18:00:50.602Z,29.02
2022-12-01T18:04:52.573Z,24.60
2022-12-01T18:08:55.016Z,22.50
2022-12-01T18:12:56.799Z,31.02
2022-12-01T18:16:58.520Z,29.38
2022-12-01T18:21:05.650Z,30.52
2022-12-01T18:25:07.706Z,25.55
2022-12-01T18:29:18.791Z,28.13
2022-12-01T18:33:21.049Z,25.17
2022-12-01T18:37:22.913Z,32.75
2022-12-01T18:41:25.378Z,29.45
2022-12-01T18:45:27.048Z,30.25
2022-12-01T18:49:28.738Z,34.63
2022-12-01T18:53:30.885Z,31.95
2022-12-01T18:57:32.675Z,31.38
2022-12-01T19:01:40.188Z,30.55
2022-12-01T19:05:42.073Z,27.85
2022-12-01T19:09:43.793Z,28.02
2022-12-01T19:13:45.871Z,32.38
2022-12-01T19:17:47.644Z,34.75
2022-12-01T19:21:50.462Z,33.78
2022-12-01T19:25:52.233Z,29.85
2022-12-01T19:29:54.849Z,35.38
2022-12-01T19:33:56.831Z,28.77
2022-12-01T19:37:59.733Z,33.47
2022-12-01T19:42:01.408Z,35.72
2022-12-01T19:46:11.927Z,35.78
2022-12-01T19:50:13.757Z,29.60
2022-12-01T19:54:20.216Z,29.98
2022-12-01T19:58:22.238Z,40.38
2022-12-01T20:02:28.919Z,41.00
2022-12-01T20:06:33.525Z,29.50
2022-12-01T20:10:35.161Z,31.10
2022-12-01T20:14:36.937Z,33.58
2022-12-01T20:18:39.437Z,31.42
2022-12-01T20:22:41.181Z,31.08
2022-12-01T20:26:47.113Z,34.67
2022-12-01T20:30:48.747Z,37.75
2022-12-01T20:34:50.881Z,33.83
2022-12-01T20:38:52.803Z,33.30
2022-12-01T20:42:54.522Z,37.42
2022-12-01T20:46:56.988Z,32.78
2022-12-01T20:51:04.209Z,29.65
2022-12-01T20:55:06.817Z,30.70
2022-12-01T20:59:08.592Z,32.75
2022-12-01T21:03:11.280Z,33.63
2022-12-01T21:07:12.951Z,47.17
2022-12-01T21:11:44.476Z,32.38
2022-12-01T21:15:54.690Z,35.35
2022-12-01T21:20:01.819Z,33.10
2022-12-01T21:24:13.729Z,34.42
2022-12-01T21:28:21.272Z,33.92
2022-12-01T21:32:33.474Z,29.57
2022-12-01T21:36:35.221Z,32.83
2022-12-01T21:40:36.937Z,35.53
2022-12-01T21:44:39.504Z,34.67
2022-12-01T21:48:42.341Z,40.33
2022-12-01T21:52:46.234Z,37.15
2022-12-01T21:56:58.416Z,35.95
2022-12-01T22:01:00.883Z,34.55
2022-12-01T22:05:02.657Z,39.97
2022-12-01T22:09:22.444Z,44.80
2022-12-01T22:13:36.158Z,36.53
2022-12-01T22:17:37.988Z,43.88
2022-12-01T22:21:44.163Z,36.03
2022-12-01T22:25:47.566Z,44.58
2022-12-01T22:29:51.826Z,48.58
2022-12-01T22:34:02.871Z,39.58
2022-12-01T22:38:11.009Z,38.83
2022-12-01T22:42:27.884Z,47.53
2022-12-01T22:46:34.904Z,37.45
2022-12-01T22:50:37.365Z,41.33
2022-12-01T22:54:43.485Z,46.33
2022-12-01T22:58:45.205Z,51.00
2022-12-01T23:02:52.450Z,41.40
2022-12-01T23:07:00.279Z,48.38
2022-12-01T23:11:01.961Z,44.85
2022-12-01T23:15:39.486Z,43.35
2022-12-01T23:19:41.250Z,47.72
2022-12-01T23:23:43.008Z,41.42
2022-12-01T23:27:46.953Z,44.75
2022-12-01T23:31:50.452Z,50.53
2022-12-01T23:36:01.014Z,54.05
2022-12-01T23:40:15.149Z,50.15
2022-12-01T23:44:34.965Z,46.90
2022-12-01T23:48:49.570Z,49.90
2022-12-01T23:52:51.932Z,42.90
2022-12-01T23:56:57.676Z,49.22
